sensor_id;sensor_type;location;lat;lon;timestamp;P1;durP1;ratioP1;P2;durP2;ratioP2
18947;SDS011;9607;51.600;7.558;2023-03-01T00:00:05;8.90;;;7.03;;
18947;SDS011;9607;51.600;7.558;2023-03-01T00:02:33;8.87;;;6.80;;
18947;SDS011;9607;51.600;7.558;2023-03-01T00:05:00;8.87;;;6.90;;
18947;SDS011;9607;51.600;7.558;2023-03-01T00:07:27;8.03;;;7.20;;
18947;SDS011;9607;51.600;7.558;2023-03-01T00:09:55;9.13;;;7.33;;
18947;SDS011;9607;51.600;7.558;2023-03-01T00:12:22;8.30;;;6.63;;
18947;SDS011;9607;51.600;7.558;2023-03-01T00:14:49;8.80;;;6.90;;
18947;SDS011;9607;51.600;7.558;2023-03-01T00:17:15;8.53;;;6.83;;
18947;SDS011;9607;51.600;7.558;2023-03-01T00:19:43;7.90;;;6.70;;
18947;SDS011;9607;51.600;7.558;2023-03-01T00:22:09;8.40;;;6.63;;
18947;SDS011;9607;51.600;7.558;2023-03-01T00:24:36;7.20;;;6.37;;
18947;SDS011;9607;51.600;7.558;2023-03-01T00:27:04;9.33;;;6.93;;
18947;SDS011;9607;51.600;7.558;2023-03-01T00:29:32;9.23;;;7.17;;
18947;SDS011;9607;51.600;7.558;2023-03-01T00:31:59;8.87;;;7.33;;
18947;SDS011;9607;51.600;7.558;2023-03-01T00:34:26;9.97;;;7.90;;
18947;SDS011;9607;51.600;7.558;2023-03-01T00:36:53;10.60;;;7.80;;
18947;SDS011;9607;51.600;7.558;2023-03-01T00:39:19;7.30;;;6.40;;
18947;SDS011;9607;51.600;7.558;2023-03-01T00:41:46;9.80;;;6.67;;
18947;SDS011;9607;51.600;7.558;2023-03-01T00:44:14;7.83;;;6.23;;
18947;SDS011;9607;51.600;7.558;2023-03-01T00:46:42;8.53;;;7.10;;
18947;SDS011;9607;51.600;7.558;2023-03-01T00:49:09;8.23;;;6.47;;
18947;SDS011;9607;51.600;7.558;2023-03-01T00:51:35;7.33;;;6.30;;
18947;SDS011;9607;51.600;7.558;2023-03-01T00:54:04;7.93;;;6.20;;
18947;SDS011;9607;51.600;7.558;2023-03-01T00:56:31;7.90;;;6.60;;
18947;SDS011;9607;51.600;7.558;2023-03-01T00:58:58;7.03;;;6.03;;
18947;SDS011;9607;51.600;7.558;2023-03-01T01:01:27;8.27;;;6.47;;
18947;SDS011;9607;51.600;7.558;2023-03-01T01:03:56;8.07;;;6.00;;
18947;SDS011;9607;51.600;7.558;2023-03-01T01:06:24;7.57;;;6.20;;
18947;SDS011;9607;51.600;7.558;2023-03-01T01:08:55;6.10;;;5.50;;
18947;SDS011;9607;51.600;7.558;2023-03-01T01:11:22;7.30;;;5.90;;
18947;SDS011;9607;51.600;7.558;2023-03-01T01:13:51;7.73;;;6.10;;
18947;SDS011;9607;51.600;7.558;2023-03-01T01:16:19;10.00;;;7.67;;
18947;SDS011;9607;51.600;7.558;2023-03-01T01:18:49;9.73;;;7.50;;
18947;SDS011;9607;51.600;7.558;2023-03-01T01:21:17;9.07;;;6.73;;
18947;SDS011;9607;51.600;7.558;2023-03-01T01:23:46;9.10;;;7.20;;
18947;SDS011;9607;51.600;7.558;2023-03-01T01:26:14;9.80;;;7.13;;
18947;SDS011;9607;51.600;7.558;2023-03-01T01:28:41;8.13;;;6.23;;
18947;SDS011;9607;51.600;7.558;2023-03-01T01:31:08;10.13;;;7.63;;
18947;SDS011;9607;51.600;7.558;2023-03-01T01:33:35;8.50;;;6.87;;
18947;SDS011;9607;51.600;7.558;2023-03-01T01:36:05;10.17;;;6.60;;
18947;SDS011;9607;51.600;7.558;2023-03-01T01:38:32;7.50;;;5.87;;
18947;SDS011;9607;51.600;7.558;2023-03-01T01:40:59;8.10;;;6.17;;
18947;SDS011;9607;51.600;7.558;2023-03-01T01:43:27;7.70;;;6.40;;
18947;SDS011;9607;51.600;7.558;2023-03-01T01:45:57;10.63;;;8.27;;
18947;SDS011;9607;51.600;7.558;2023-03-01T01:48:32;15.63;;;10.57;;
18947;SDS011;9607;51.600;7.558;2023-03-01T01:53:39;13.47;;;9.73;;
18947;SDS011;9607;51.600;7.558;2023-03-01T01:56:08;14.10;;;9.53;;
18947;SDS011;9607;51.600;7.558;2023-03-01T01:58:38;13.27;;;9.37;;
18947;SDS011;9607;51.600;7.558;2023-03-01T02:01:09;11.70;;;8.90;;
18947;SDS011;9607;51.600;7.558;2023-03-01T02:03:37;14.20;;;10.40;;
18947;SDS011;9607;51.600;7.558;2023-03-01T02:06:10;13.73;;;9.67;;
18947;SDS011;9607;51.600;7.558;2023-03-01T02:08:44;12.50;;;8.70;;
18947;SDS011;9607;51.600;7.558;2023-03-01T02:11:13;11.90;;;8.37;;
18947;SDS011;9607;51.600;7.558;2023-03-01T02:13:40;10.00;;;7.90;;
18947;SDS011;9607;51.600;7.558;2023-03-01T02:16:08;10.07;;;8.20;;
18947;SDS011;9607;51.600;7.558;2023-03-01T02:18:37;9.77;;;8.07;;
18947;SDS011;9607;51.600;7.558;2023-03-01T02:21:12;10.77;;;7.83;;
18947;SDS011;9607;51.600;7.558;2023-03-01T02:24:06;10.90;;;7.67;;
18947;SDS011;9607;51.600;7.558;2023-03-01T02:26:46;9.97;;;7.03;;
18947;SDS011;9607;51.600;7.558;2023-03-01T02:29:19;8.97;;;6.73;;
18947;SDS011;9607;51.600;7.558;2023-03-01T02:31:47;8.23;;;6.87;;
18947;SDS011;9607;51.600;7.558;2023-03-01T02:34:15;10.67;;;7.60;;
18947;SDS011;9607;51.600;7.558;2023-03-01T02:36:52;10.17;;;6.67;;
18947;SDS011;9607;51.600;7.558;2023-03-01T02:39:23;8.87;;;7.10;;
18947;SDS011;9607;51.600;7.558;2023-03-01T02:41:54;8.93;;;6.70;;
18947;SDS011;9607;51.600;7.558;2023-03-01T02:44:24;10.33;;;7.67;;
18947;SDS011;9607;51.600;7.558;2023-03-01T02:46:51;11.20;;;8.43;;
18947;SDS011;9607;51.600;7.558;2023-03-01T02:49:22;11.63;;;8.67;;
18947;SDS011;9607;51.600;7.558;2023-03-01T02:52:03;10.13;;;8.00;;
18947;SDS011;9607;51.600;7.558;2023-03-01T02:54:36;15.47;;;9.67;;
18947;SDS011;9607;51.600;7.558;2023-03-01T02:57:08;10.57;;;8.37;;
18947;SDS011;9607;51.600;7.558;2023-03-01T02:59:38;12.40;;;8.60;;
18947;SDS011;9607;51.600;7.558;2023-03-01T03:02:06;10.33;;;7.60;;
18947;SDS011;9607;51.600;7.558;2023-03-01T03:04:33;10.37;;;7.93;;
18947;SDS011;9607;51.600;7.558;2023-03-01T03:07:00;8.60;;;7.10;;
18947;SDS011;9607;51.600;7.558;2023-03-01T03:09:27;10.07;;;7.03;;
18947;SDS011;9607;51.600;7.558;2023-03-01T03:11:54;9.43;;;7.00;;
18947;SDS011;9607;51.600;7.558;2023-03-01T03:14:21;9.87;;;6.93;;
18947;SDS011;9607;51.600;7.558;2023-03-01T03:16:49;10.03;;;7.33;;
18947;SDS011;9607;51.600;7.558;2023-03-01T03:19:17;11.93;;;8.07;;
18947;SDS011;9607;51.600;7.558;2023-03-01T03:21:45;15.20;;;10.07;;
18947;SDS011;9607;51.600;7.558;2023-03-01T03:24:12;11.60;;;8.87;;
18947;SDS011;9607;51.600;7.558;2023-03-01T03:26:39;12.93;;;9.37;;
18947;SDS011;9607;51.600;7.558;2023-03-01T03:29:09;10.63;;;8.17;;
18947;SDS011;9607;51.600;7.558;2023-03-01T03:31:35;13.40;;;8.63;;
18947;SDS011;9607;51.600;7.558;2023-03-01T03:34:03;10.47;;;7.70;;
18947;SDS011;9607;51.600;7.558;2023-03-01T03:36:31;12.87;;;9.00;;
18947;SDS011;9607;51.600;7.558;2023-03-01T03:38:58;10.13;;;7.90;;
18947;SDS011;9607;51.600;7.558;2023-03-01T03:41:24;12.20;;;8.30;;
18947;SDS011;9607;51.600;7.558;2023-03-01T03:43:51;10.77;;;7.40;;
18947;SDS011;9607;51.600;7.558;2023-03-01T03:46:18;11.63;;;7.80;;
18947;SDS011;9607;51.600;7.558;2023-03-01T03:48:45;10.43;;;7.43;;
18947;SDS011;9607;51.600;7.558;2023-03-01T03:51:15;8.77;;;7.03;;
18947;SDS011;9607;51.600;7.558;2023-03-01T03:53:43;10.70;;;7.90;;
18947;SDS011;9607;51.600;7.558;2023-03-01T03:56:11;8.70;;;7.17;;
18947;SDS011;9607;51.600;7.558;2023-03-01T03:58:38;10.83;;;6.97;;
18947;SDS011;9607;51.600;7.558;2023-03-01T04:01:05;9.53;;;7.07;;
18947;SDS011;9607;51.600;7.558;2023-03-01T04:03:33;10.27;;;7.07;;
18947;SDS011;9607;51.600;7.558;2023-03-01T04:06:00;9.40;;;6.87;;
18947;SDS011;9607;51.600;7.558;2023-03-01T04:08:30;10.07;;;7.13;;
18947;SDS011;9607;51.600;7.558;2023-03-01T04:10:58;8.93;;;7.13;;
18947;SDS011;9607;51.600;7.558;2023-03-01T04:13:46;6.93;;;5.60;;
18947;SDS011;9607;51.600;7.558;2023-03-01T04:16:13;8.23;;;6.50;;
18947;SDS011;9607;51.600;7.558;2023-03-01T04:18:40;9.40;;;7.07;;
18947;SDS011;9607;51.600;7.558;2023-03-01T04:21:07;10.13;;;7.50;;
18947;SDS011;9607;51.600;7.558;2023-03-01T04:23:35;9.57;;;7.07;;
18947;SDS011;9607;51.600;7.558;2023-03-01T04:26:02;10.33;;;7.33;;
18947;SDS011;9607;51.600;7.558;2023-03-01T04:28:30;10.83;;;7.90;;
18947;SDS011;9607;51.600;7.558;2023-03-01T04:31:02;10.93;;;8.37;;
18947;SDS011;9607;51.600;7.558;2023-03-01T04:33:38;12.53;;;9.47;;
18947;SDS011;9607;51.600;7.558;2023-03-01T04:36:06;18.13;;;11.57;;
18947;SDS011;9607;51.600;7.558;2023-03-01T04:38:36;20.17;;;12.37;;
18947;SDS011;9607;51.600;7.558;2023-03-01T04:41:03;17.73;;;11.37;;
18947;SDS011;9607;51.600;7.558;2023-03-01T04:43:31;15.60;;;10.53;;
18947;SDS011;9607;51.600;7.558;2023-03-01T04:46:02;15.37;;;11.27;;
18947;SDS011;9607;51.600;7.558;2023-03-01T04:48:31;15.57;;;11.47;;
18947;SDS011;9607;51.600;7.558;2023-03-01T04:50:58;17.33;;;10.97;;
18947;SDS011;9607;51.600;7.558;2023-03-01T04:53:25;15.83;;;11.03;;
18947;SDS011;9607;51.600;7.558;2023-03-01T04:55:54;14.07;;;10.23;;
18947;SDS011;9607;51.600;7.558;2023-03-01T04:58:22;15.00;;;9.90;;
18947;SDS011;9607;51.600;7.558;2023-03-01T05:00:55;15.17;;;10.43;;
18947;SDS011;9607;51.600;7.558;2023-03-01T05:03:22;13.13;;;9.43;;
18947;SDS011;9607;51.600;7.558;2023-03-01T05:05:50;11.50;;;9.00;;
18947;SDS011;9607;51.600;7.558;2023-03-01T05:08:18;12.07;;;8.43;;
18947;SDS011;9607;51.600;7.558;2023-03-01T05:10:46;9.80;;;7.93;;
18947;SDS011;9607;51.600;7.558;2023-03-01T05:13:18;11.83;;;8.83;;
18947;SDS011;9607;51.600;7.558;2023-03-01T05:15:47;11.03;;;8.57;;
18947;SDS011;9607;51.600;7.558;2023-03-01T05:18:15;11.10;;;8.03;;
18947;SDS011;9607;51.600;7.558;2023-03-01T05:20:42;11.57;;;8.33;;
18947;SDS011;9607;51.600;7.558;2023-03-01T05:23:09;14.93;;;9.80;;
18947;SDS011;9607;51.600;7.558;2023-03-01T05:25:36;11.87;;;7.93;;
18947;SDS011;9607;51.600;7.558;2023-03-01T05:30:38;12.60;;;9.20;;
18947;SDS011;9607;51.600;7.558;2023-03-01T05:33:05;14.43;;;9.93;;
18947;SDS011;9607;51.600;7.558;2023-03-01T05:35:38;17.33;;;11.37;;
18947;SDS011;9607;51.600;7.558;2023-03-01T05:38:05;15.47;;;10.33;;
18947;SDS011;9607;51.600;7.558;2023-03-01T05:40:32;14.63;;;10.00;;
18947;SDS011;9607;51.600;7.558;2023-03-01T05:43:01;13.73;;;9.23;;
18947;SDS011;9607;51.600;7.558;2023-03-01T05:45:30;13.50;;;8.77;;
18947;SDS011;9607;51.600;7.558;2023-03-01T05:48:00;11.40;;;8.43;;
18947;SDS011;9607;51.600;7.558;2023-03-01T05:50:27;11.53;;;8.20;;
18947;SDS011;9607;51.600;7.558;2023-03-01T05:52:59;12.27;;;8.80;;
18947;SDS011;9607;51.600;7.558;2023-03-01T05:55:28;11.10;;;8.13;;
18947;SDS011;9607;51.600;7.558;2023-03-01T05:57:57;10.50;;;7.90;;
18947;SDS011;9607;51.600;7.558;2023-03-01T06:00:25;12.97;;;8.80;;
18947;SDS011;9607;51.600;7.558;2023-03-01T06:02:53;17.13;;;11.63;;
18947;SDS011;9607;51.600;7.558;2023-03-01T06:05:22;17.30;;;11.20;;
18947;SDS011;9607;51.600;7.558;2023-03-01T06:07:50;16.53;;;11.10;;
18947;SDS011;9607;51.600;7.558;2023-03-01T06:10:18;16.13;;;11.13;;
18947;SDS011;9607;51.600;7.558;2023-03-01T06:12:46;14.00;;;10.67;;
18947;SDS011;9607;51.600;7.558;2023-03-01T06:15:14;16.30;;;10.70;;
18947;SDS011;9607;51.600;7.558;2023-03-01T06:17:42;21.63;;;11.70;;
18947;SDS011;9607;51.600;7.558;2023-03-01T06:20:11;16.77;;;10.73;;
18947;SDS011;9607;51.600;7.558;2023-03-01T06:22:41;15.00;;;10.40;;
18947;SDS011;9607;51.600;7.558;2023-03-01T06:25:08;16.63;;;10.80;;
18947;SDS011;9607;51.600;7.558;2023-03-01T06:27:37;16.70;;;11.47;;
18947;SDS011;9607;51.600;7.558;2023-03-01T06:30:05;17.47;;;11.10;;
18947;SDS011;9607;51.600;7.558;2023-03-01T06:32:33;18.27;;;12.53;;
18947;SDS011;9607;51.600;7.558;2023-03-01T06:34:59;18.17;;;12.03;;
18947;SDS011;9607;51.600;7.558;2023-03-01T06:37:26;15.03;;;10.30;;
18947;SDS011;9607;51.600;7.558;2023-03-01T06:39:55;16.33;;;10.83;;
18947;SDS011;9607;51.600;7.558;2023-03-01T06:42:21;15.27;;;9.83;;
18947;SDS011;9607;51.600;7.558;2023-03-01T06:44:48;14.90;;;9.87;;
18947;SDS011;9607;51.600;7.558;2023-03-01T06:47:15;15.60;;;10.43;;
18947;SDS011;9607;51.600;7.558;2023-03-01T06:49:42;14.00;;;10.00;;
18947;SDS011;9607;51.600;7.558;2023-03-01T06:52:08;12.43;;;8.63;;
18947;SDS011;9607;51.600;7.558;2023-03-01T06:54:35;12.43;;;9.00;;
18947;SDS011;9607;51.600;7.558;2023-03-01T06:57:03;14.00;;;8.77;;
18947;SDS011;9607;51.600;7.558;2023-03-01T06:59:30;13.83;;;9.10;;
18947;SDS011;9607;51.600;7.558;2023-03-01T07:01:57;14.53;;;8.77;;
18947;SDS011;9607;51.600;7.558;2023-03-01T07:04:24;15.73;;;10.30;;
18947;SDS011;9607;51.600;7.558;2023-03-01T07:06:53;12.97;;;9.13;;
18947;SDS011;9607;51.600;7.558;2023-03-01T07:09:20;12.60;;;9.20;;
18947;SDS011;9607;51.600;7.558;2023-03-01T07:11:47;11.40;;;8.87;;
18947;SDS011;9607;51.600;7.558;2023-03-01T07:14:16;12.10;;;8.83;;
18947;SDS011;9607;51.600;7.558;2023-03-01T07:16:44;13.27;;;9.27;;
18947;SDS011;9607;51.600;7.558;2023-03-01T07:19:11;14.87;;;10.17;;
18947;SDS011;9607;51.600;7.558;2023-03-01T07:21:38;15.00;;;10.00;;
18947;SDS011;9607;51.600;7.558;2023-03-01T07:24:05;13.87;;;9.87;;
18947;SDS011;9607;51.600;7.558;2023-03-01T07:26:33;13.37;;;9.83;;
18947;SDS011;9607;51.600;7.558;2023-03-01T07:29:00;15.00;;;10.23;;
18947;SDS011;9607;51.600;7.558;2023-03-01T07:31:28;16.63;;;10.87;;
18947;SDS011;9607;51.600;7.558;2023-03-01T07:33:56;13.83;;;9.70;;
18947;SDS011;9607;51.600;7.558;2023-03-01T07:36:23;14.17;;;9.90;;
18947;SDS011;9607;51.600;7.558;2023-03-01T07:38:50;14.30;;;10.37;;
18947;SDS011;9607;51.600;7.558;2023-03-01T07:41:17;12.73;;;9.80;;
18947;SDS011;9607;51.600;7.558;2023-03-01T07:43:44;15.73;;;10.90;;
18947;SDS011;9607;51.600;7.558;2023-03-01T07:46:11;14.87;;;10.37;;
18947;SDS011;9607;51.600;7.558;2023-03-01T07:48:39;14.27;;;10.10;;
18947;SDS011;9607;51.600;7.558;2023-03-01T07:51:06;13.33;;;9.53;;
18947;SDS011;9607;51.600;7.558;2023-03-01T07:53:34;11.60;;;9.30;;
18947;SDS011;9607;51.600;7.558;2023-03-01T07:56:01;13.33;;;9.53;;
18947;SDS011;9607;51.600;7.558;2023-03-01T07:58:29;12.73;;;9.63;;
18947;SDS011;9607;51.600;7.558;2023-03-01T08:00:56;14.37;;;10.70;;
18947;SDS011;9607;51.600;7.558;2023-03-01T08:03:27;12.17;;;9.47;;
18947;SDS011;9607;51.600;7.558;2023-03-01T08:05:58;12.87;;;9.87;;
18947;SDS011;9607;51.600;7.558;2023-03-01T08:08:25;14.47;;;10.23;;
18947;SDS011;9607;51.600;7.558;2023-03-01T08:10:52;11.63;;;9.20;;
18947;SDS011;9607;51.600;7.558;2023-03-01T08:13:22;14.73;;;10.53;;
18947;SDS011;9607;51.600;7.558;2023-03-01T08:15:49;11.60;;;8.93;;
18947;SDS011;9607;51.600;7.558;2023-03-01T08:18:16;10.93;;;8.43;;
18947;SDS011;9607;51.600;7.558;2023-03-01T08:20:44;11.37;;;8.33;;
18947;SDS011;9607;51.600;7.558;2023-03-01T08:23:13;11.43;;;8.02;;
18947;SDS011;9607;51.600;7.558;2023-03-01T08:25:39;12.40;;;8.67;;
18947;SDS011;9607;51.600;7.558;2023-03-01T08:28:07;11.60;;;8.35;;
18947;SDS011;9607;51.600;7.558;2023-03-01T08:30:34;10.50;;;8.23;;
18947;SDS011;9607;51.600;7.558;2023-03-01T08:33:01;10.32;;;8.20;;
18947;SDS011;9607;51.600;7.558;2023-03-01T08:35:27;10.07;;;8.23;;
18947;SDS011;9607;51.600;7.558;2023-03-01T08:37:56;10.80;;;8.33;;
18947;SDS011;9607;51.600;7.558;2023-03-01T08:40:24;11.13;;;8.18;;
18947;SDS011;9607;51.600;7.558;2023-03-01T08:42:51;11.80;;;8.45;;
18947;SDS011;9607;51.600;7.558;2023-03-01T08:45:18;8.68;;;7.60;;
18947;SDS011;9607;51.600;7.558;2023-03-01T08:47:44;10.57;;;7.97;;
18947;SDS011;9607;51.600;7.558;2023-03-01T08:50:11;8.80;;;6.90;;
18947;SDS011;9607;51.600;7.558;2023-03-01T08:52:38;9.82;;;6.43;;
18947;SDS011;9607;51.600;7.558;2023-03-01T08:55:05;9.07;;;6.70;;
18947;SDS011;9607;51.600;7.558;2023-03-01T08:57:35;10.18;;;7.45;;
18947;SDS011;9607;51.600;7.558;2023-03-01T09:00:01;9.23;;;6.30;;
18947;SDS011;9607;51.600;7.558;2023-03-01T09:02:33;7.85;;;6.03;;
18947;SDS011;9607;51.600;7.558;2023-03-01T09:05:00;7.53;;;5.97;;
18947;SDS011;9607;51.600;7.558;2023-03-01T09:07:27;6.35;;;5.65;;
18947;SDS011;9607;51.600;7.558;2023-03-01T09:09:54;9.68;;;6.20;;
18947;SDS011;9607;51.600;7.558;2023-03-01T09:12:22;9.65;;;6.85;;
18947;SDS011;9607;51.600;7.558;2023-03-01T09:14:51;8.35;;;6.63;;
18947;SDS011;9607;51.600;7.558;2023-03-01T09:17:17;11.35;;;6.40;;
18947;SDS011;9607;51.600;7.558;2023-03-01T09:19:46;12.60;;;7.85;;
18947;SDS011;9607;51.600;7.558;2023-03-01T09:22:13;8.77;;;6.15;;
18947;SDS011;9607;51.600;7.558;2023-03-01T09:24:40;7.82;;;6.10;;
18947;SDS011;9607;51.600;7.558;2023-03-01T09:27:06;6.40;;;5.57;;
18947;SDS011;9607;51.600;7.558;2023-03-01T09:29:33;6.70;;;5.60;;
18947;SDS011;9607;51.600;7.558;2023-03-01T09:32:02;7.18;;;5.50;;
18947;SDS011;9607;51.600;7.558;2023-03-01T09:34:29;6.90;;;5.78;;
18947;SDS011;9607;51.600;7.558;2023-03-01T09:37:17;8.00;;;5.70;;
18947;SDS011;9607;51.600;7.558;2023-03-01T09:39:43;5.95;;;4.97;;
18947;SDS011;9607;51.600;7.558;2023-03-01T09:42:13;5.68;;;4.57;;
18947;SDS011;9607;51.600;7.558;2023-03-01T09:44:42;5.78;;;4.50;;
18947;SDS011;9607;51.600;7.558;2023-03-01T09:47:17;7.00;;;5.15;;
18947;SDS011;9607;51.600;7.558;2023-03-01T09:49:48;8.07;;;5.90;;
18947;SDS011;9607;51.600;7.558;2023-03-01T09:52:25;8.82;;;6.07;;
18947;SDS011;9607;51.600;7.558;2023-03-01T09:54:57;7.18;;;5.93;;
18947;SDS011;9607;51.600;7.558;2023-03-01T09:57:26;5.68;;;5.05;;
18947;SDS011;9607;51.600;7.558;2023-03-01T10:02:57;9.18;;;5.82;;
18947;SDS011;9607;51.600;7.558;2023-03-01T10:05:36;6.80;;;5.57;;
18947;SDS011;9607;51.600;7.558;2023-03-01T10:11:01;5.72;;;4.60;;
18947;SDS011;9607;51.600;7.558;2023-03-01T10:13:31;6.07;;;5.00;;
18947;SDS011;9607;51.600;7.558;2023-03-01T10:16:05;7.15;;;5.63;;
18947;SDS011;9607;51.600;7.558;2023-03-01T10:18:39;7.30;;;5.00;;
18947;SDS011;9607;51.600;7.558;2023-03-01T10:21:13;8.30;;;5.50;;
18947;SDS011;9607;51.600;7.558;2023-03-01T10:23:42;8.23;;;5.75;;
18947;SDS011;9607;51.600;7.558;2023-03-01T10:26:12;6.55;;;4.88;;
18947;SDS011;9607;51.600;7.558;2023-03-01T10:28:59;8.90;;;5.70;;
18947;SDS011;9607;51.600;7.558;2023-03-01T10:31:32;7.85;;;5.72;;
18947;SDS011;9607;51.600;7.558;2023-03-01T10:34:10;6.95;;;5.00;;
18947;SDS011;9607;51.600;7.558;2023-03-01T10:36:39;7.47;;;4.63;;
18947;SDS011;9607;51.600;7.558;2023-03-01T10:39:11;9.30;;;6.10;;
18947;SDS011;9607;51.600;7.558;2023-03-01T10:41:47;7.93;;;5.25;;
18947;SDS011;9607;51.600;7.558;2023-03-01T10:47:03;9.85;;;6.38;;
18947;SDS011;9607;51.600;7.558;2023-03-01T10:49:32;9.23;;;5.55;;
18947;SDS011;9607;51.600;7.558;2023-03-01T10:51:58;10.25;;;5.88;;
18947;SDS011;9607;51.600;7.558;2023-03-01T10:54:45;7.80;;;5.78;;
18947;SDS011;9607;51.600;7.558;2023-03-01T10:57:25;7.18;;;5.40;;
18947;SDS011;9607;51.600;7.558;2023-03-01T11:00:14;8.68;;;5.68;;
18947;SDS011;9607;51.600;7.558;2023-03-01T11:02:46;8.98;;;6.32;;
18947;SDS011;9607;51.600;7.558;2023-03-01T11:05:21;6.35;;;4.70;;
18947;SDS011;9607;51.600;7.558;2023-03-01T11:07:50;9.73;;;5.93;;
18947;SDS011;9607;51.600;7.558;2023-03-01T11:10:20;7.18;;;5.57;;
18947;SDS011;9607;51.600;7.558;2023-03-01T11:12:50;10.07;;;6.07;;
18947;SDS011;9607;51.600;7.558;2023-03-01T11:15:22;8.85;;;5.78;;
18947;SDS011;9607;51.600;7.558;2023-03-01T11:17:52;7.07;;;5.68;;
18947;SDS011;9607;51.600;7.558;2023-03-01T11:20:25;8.15;;;5.72;;
18947;SDS011;9607;51.600;7.558;2023-03-01T11:22:56;6.82;;;5.00;;
18947;SDS011;9607;51.600;7.558;2023-03-01T11:25:26;8.20;;;6.28;;
18947;SDS011;9607;51.600;7.558;2023-03-01T11:27:55;6.97;;;5.20;;
18947;SDS011;9607;51.600;7.558;2023-03-01T11:30:26;8.20;;;6.38;;
18947;SDS011;9607;51.600;7.558;2023-03-01T11:33:01;8.85;;;6.00;;
18947;SDS011;9607;51.600;7.558;2023-03-01T11:35:36;9.85;;;5.60;;
18947;SDS011;9607;51.600;7.558;2023-03-01T11:38:12;9.73;;;6.05;;
18947;SDS011;9607;51.600;7.558;2023-03-01T11:40:44;7.22;;;5.45;;
18947;SDS011;9607;51.600;7.558;2023-03-01T11:43:15;8.32;;;5.80;;
18947;SDS011;9607;51.600;7.558;2023-03-01T11:48:51;7.97;;;5.45;;
18947;SDS011;9607;51.600;7.558;2023-03-01T11:51:30;9.05;;;6.32;;
18947;SDS011;9607;51.600;7.558;2023-03-01T11:54:09;8.77;;;5.85;;
18947;SDS011;9607;51.600;7.558;2023-03-01T11:56:55;7.18;;;5.47;;
18947;SDS011;9607;51.600;7.558;2023-03-01T11:59:39;8.73;;;6.65;;
18947;SDS011;9607;51.600;7.558;2023-03-01T12:08:05;7.40;;;5.68;;
18947;SDS011;9607;51.600;7.558;2023-03-01T12:10:41;7.32;;;5.40;;
18947;SDS011;9607;51.600;7.558;2023-03-01T12:13:19;6.85;;;5.05;;
18947;SDS011;9607;51.600;7.558;2023-03-01T12:16:01;6.18;;;4.15;;
18947;SDS011;9607;51.600;7.558;2023-03-01T12:18:49;8.70;;;5.57;;
18947;SDS011;9607;51.600;7.558;2023-03-01T12:21:37;8.13;;;4.90;;
18947;SDS011;9607;51.600;7.558;2023-03-01T12:24:23;6.93;;;4.63;;
18947;SDS011;9607;51.600;7.558;2023-03-01T12:27:10;6.38;;;4.75;;
18947;SDS011;9607;51.600;7.558;2023-03-01T12:29:49;5.60;;;4.80;;
18947;SDS011;9607;51.600;7.558;2023-03-01T12:32:31;6.78;;;5.30;;
18947;SDS011;9607;51.600;7.558;2023-03-01T12:35:14;6.80;;;4.68;;
18947;SDS011;9607;51.600;7.558;2023-03-01T12:37:59;7.25;;;4.20;;
18947;SDS011;9607;51.600;7.558;2023-03-01T12:40:46;6.43;;;4.57;;
18947;SDS011;9607;51.600;7.558;2023-03-01T12:43:32;5.70;;;4.30;;
18947;SDS011;9607;51.600;7.558;2023-03-01T12:46:18;6.03;;;5.18;;
18947;SDS011;9607;51.600;7.558;2023-03-01T12:48:54;6.65;;;4.82;;
18947;SDS011;9607;51.600;7.558;2023-03-01T12:51:29;6.30;;;4.50;;
18947;SDS011;9607;51.600;7.558;2023-03-01T12:53:59;6.18;;;5.05;;
18947;SDS011;9607;51.600;7.558;2023-03-01T12:56:34;6.45;;;4.53;;
18947;SDS011;9607;51.600;7.558;2023-03-01T12:59:05;5.88;;;4.82;;
18947;SDS011;9607;51.600;7.558;2023-03-01T13:01:42;4.82;;;4.13;;
18947;SDS011;9607;51.600;7.558;2023-03-01T13:04:17;5.35;;;4.28;;
18947;SDS011;9607;51.600;7.558;2023-03-01T13:07:03;5.82;;;4.88;;
18947;SDS011;9607;51.600;7.558;2023-03-01T13:09:40;6.28;;;4.55;;
18947;SDS011;9607;51.600;7.558;2023-03-01T13:15:30;6.60;;;4.85;;
18947;SDS011;9607;51.600;7.558;2023-03-01T13:18:00;6.72;;;4.95;;
18947;SDS011;9607;51.600;7.558;2023-03-01T13:20:33;5.68;;;4.43;;
18947;SDS011;9607;51.600;7.558;2023-03-01T13:23:11;5.03;;;4.53;;
18947;SDS011;9607;51.600;7.558;2023-03-01T13:26:00;6.07;;;4.82;;
18947;SDS011;9607;51.600;7.558;2023-03-01T13:28:38;5.93;;;4.28;;
18947;SDS011;9607;51.600;7.558;2023-03-01T13:31:08;5.53;;;4.43;;
18947;SDS011;9607;51.600;7.558;2023-03-01T13:33:42;6.00;;;4.88;;
18947;SDS011;9607;51.600;7.558;2023-03-01T13:36:10;4.78;;;3.88;;
18947;SDS011;9607;51.600;7.558;2023-03-01T13:39:01;4.40;;;3.78;;
18947;SDS011;9607;51.600;7.558;2023-03-01T13:41:49;6.38;;;4.32;;
18947;SDS011;9607;51.600;7.558;2023-03-01T13:44:20;5.40;;;4.20;;
18947;SDS011;9607;51.600;7.558;2023-03-01T13:46:53;5.10;;;4.43;;
18947;SDS011;9607;51.600;7.558;2023-03-01T13:49:23;7.32;;;5.03;;
18947;SDS011;9607;51.600;7.558;2023-03-01T13:51:53;7.28;;;5.03;;
18947;SDS011;9607;51.600;7.558;2023-03-01T13:54:23;7.85;;;4.95;;
18947;SDS011;9607;51.600;7.558;2023-03-01T13:56:55;6.95;;;4.55;;
18947;SDS011;9607;51.600;7.558;2023-03-01T13:59:24;6.72;;;5.30;;
18947;SDS011;9607;51.600;7.558;2023-03-01T14:01:56;6.22;;;5.10;;
18947;SDS011;9607;51.600;7.558;2023-03-01T14:04:24;8.50;;;5.50;;
18947;SDS011;9607;51.600;7.558;2023-03-01T14:07:08;7.13;;;5.32;;
18947;SDS011;9607;51.600;7.558;2023-03-01T14:09:37;5.50;;;4.43;;
18947;SDS011;9607;51.600;7.558;2023-03-01T14:12:12;5.95;;;4.70;;
18947;SDS011;9607;51.600;7.558;2023-03-01T14:14:53;5.13;;;4.45;;
18947;SDS011;9607;51.600;7.558;2023-03-01T14:17:33;5.53;;;4.93;;
18947;SDS011;9607;51.600;7.558;2023-03-01T14:20:17;5.82;;;4.78;;
18947;SDS011;9607;51.600;7.558;2023-03-01T14:22:46;6.50;;;4.55;;
18947;SDS011;9607;51.600;7.558;2023-03-01T14:25:19;6.38;;;4.40;;
18947;SDS011;9607;51.600;7.558;2023-03-01T14:27:52;5.50;;;4.25;;
18947;SDS011;9607;51.600;7.558;2023-03-01T14:30:24;5.18;;;4.28;;
18947;SDS011;9607;51.600;7.558;2023-03-01T14:32:55;5.75;;;4.50;;
18947;SDS011;9607;51.600;7.558;2023-03-01T14:35:24;5.60;;;4.70;;
18947;SDS011;9607;51.600;7.558;2023-03-01T14:37:53;7.43;;;5.63;;
18947;SDS011;9607;51.600;7.558;2023-03-01T14:40:24;5.20;;;4.25;;
18947;SDS011;9607;51.600;7.558;2023-03-01T14:42:53;7.05;;;4.40;;
18947;SDS011;9607;51.600;7.558;2023-03-01T14:45:21;6.15;;;4.60;;
18947;SDS011;9607;51.600;7.558;2023-03-01T14:47:50;7.70;;;4.57;;
18947;SDS011;9607;51.600;7.558;2023-03-01T14:50:21;6.55;;;4.60;;
18947;SDS011;9607;51.600;7.558;2023-03-01T14:52:51;10.05;;;4.45;;
18947;SDS011;9607;51.600;7.558;2023-03-01T14:55:20;5.70;;;3.70;;
18947;SDS011;9607;51.600;7.558;2023-03-01T14:57:51;6.90;;;4.50;;
18947;SDS011;9607;51.600;7.558;2023-03-01T15:00:20;6.18;;;3.90;;
18947;SDS011;9607;51.600;7.558;2023-03-01T15:02:50;5.35;;;4.20;;
18947;SDS011;9607;51.600;7.558;2023-03-01T15:05:24;4.03;;;3.30;;
18947;SDS011;9607;51.600;7.558;2023-03-01T15:07:56;10.02;;;4.47;;
18947;SDS011;9607;51.600;7.558;2023-03-01T15:10:25;5.03;;;4.28;;
18947;SDS011;9607;51.600;7.558;2023-03-01T15:12:53;4.70;;;3.25;;
18947;SDS011;9607;51.600;7.558;2023-03-01T15:18:06;4.63;;;3.80;;
18947;SDS011;9607;51.600;7.558;2023-03-01T15:20:43;5.38;;;3.92;;
18947;SDS011;9607;51.600;7.558;2023-03-01T15:23:18;5.82;;;3.40;;
18947;SDS011;9607;51.600;7.558;2023-03-01T15:25:48;4.35;;;3.20;;
18947;SDS011;9607;51.600;7.558;2023-03-01T15:28:21;4.10;;;3.47;;
18947;SDS011;9607;51.600;7.558;2023-03-01T15:30:52;3.90;;;3.35;;
18947;SDS011;9607;51.600;7.558;2023-03-01T15:33:35;5.13;;;3.42;;
18947;SDS011;9607;51.600;7.558;2023-03-01T15:36:29;3.28;;;2.70;;
18947;SDS011;9607;51.600;7.558;2023-03-01T15:39:03;4.72;;;3.38;;
18947;SDS011;9607;51.600;7.558;2023-03-01T15:41:32;4.25;;;3.33;;